Archival Weather

South Haven Area Rgnl

South Haven, Michigan (KLWA)

Report from: Thursday, September 21, 2023 9:35 PM EDT
Current time: Sunday, July 14, 2024 7:49 AM EDT

Current weather – Weather history – Daily summaries
Weather forecast

Temperature19.4°C (66.9°F)
Dew point18.2°C (64.8°F)
Winds 3 kts (1.5 m/s, 3.5 mph) East-Northeast (70°)
Visibility10 mi. (16.1 km)
Clouds Sky clear
Altimeter30.20 in.Hg (1023 mB)
Relative humidity93 %
Density altitude483 ft. (147 m)
Remarks Fully automated report
Automated weather observing station with precipitation discriminator
Flight conditions Visual Meteorological Conditions
Raw dataKLWA 220135Z AUTO 07003KT 10SM CLR 19/18 A3020 RMK AO2 T01940182
An error has occurred. This application may no longer respond until reloaded. Reload 🗙